sensor_id;sensor_type;location;lat;lon;timestamp;P1;durP1;ratioP1;P2;durP2;ratioP2
36351;SDS011;22382;44.768;17.206;2022-07-30T00:02:06;12.15;;;9.50;;
36351;SDS011;22382;44.768;17.206;2022-07-30T00:04:33;10.93;;;8.40;;
36351;SDS011;22382;44.768;17.206;2022-07-30T00:07:00;9.82;;;8.82;;
36351;SDS011;22382;44.768;17.206;2022-07-30T00:09:30;11.43;;;9.68;;
36351;SDS011;22382;44.768;17.206;2022-07-30T00:12:01;13.32;;;8.70;;
36351;SDS011;22382;44.768;17.206;2022-07-30T00:14:29;13.20;;;9.50;;
36351;SDS011;22382;44.768;17.206;2022-07-30T00:16:56;16.13;;;10.75;;
36351;SDS011;22382;44.768;17.206;2022-07-30T00:19:23;14.15;;;9.50;;
36351;SDS011;22382;44.768;17.206;2022-07-30T00:21:51;14.45;;;9.98;;
36351;SDS011;22382;44.768;17.206;2022-07-30T00:24:20;12.32;;;10.00;;
36351;SDS011;22382;44.768;17.206;2022-07-30T00:26:47;11.95;;;10.48;;
36351;SDS011;22382;44.768;17.206;2022-07-30T00:29:15;11.25;;;9.98;;
36351;SDS011;22382;44.768;17.206;2022-07-30T00:31:42;11.30;;;10.10;;
36351;SDS011;22382;44.768;17.206;2022-07-30T00:34:09;11.13;;;10.02;;
36351;SDS011;22382;44.768;17.206;2022-07-30T00:36:38;12.90;;;10.57;;
36351;SDS011;22382;44.768;17.206;2022-07-30T00:39:06;11.63;;;10.43;;
36351;SDS011;22382;44.768;17.206;2022-07-30T00:41:33;13.55;;;10.10;;
36351;SDS011;22382;44.768;17.206;2022-07-30T00:44:03;14.65;;;10.52;;
36351;SDS011;22382;44.768;17.206;2022-07-30T00:46:30;11.50;;;10.15;;
36351;SDS011;22382;44.768;17.206;2022-07-30T00:48:57;11.38;;;10.18;;
36351;SDS011;22382;44.768;17.206;2022-07-30T00:51:24;12.55;;;10.52;;
36351;SDS011;22382;44.768;17.206;2022-07-30T00:53:51;12.68;;;10.00;;
36351;SDS011;22382;44.768;17.206;2022-07-30T00:56:18;10.43;;;9.32;;
36351;SDS011;22382;44.768;17.206;2022-07-30T00:58:45;10.82;;;9.73;;
36351;SDS011;22382;44.768;17.206;2022-07-30T01:01:12;10.40;;;9.40;;
36351;SDS011;22382;44.768;17.206;2022-07-30T01:03:39;10.80;;;9.80;;
36351;SDS011;22382;44.768;17.206;2022-07-30T01:06:06;11.65;;;10.27;;
36351;SDS011;22382;44.768;17.206;2022-07-30T01:08:39;10.98;;;9.88;;
36351;SDS011;22382;44.768;17.206;2022-07-30T01:11:08;11.48;;;10.32;;
36351;SDS011;22382;44.768;17.206;2022-07-30T01:13:36;11.30;;;10.07;;
36351;SDS011;22382;44.768;17.206;2022-07-30T01:16:04;11.80;;;10.60;;
36351;SDS011;22382;44.768;17.206;2022-07-30T01:18:31;19.80;;;11.73;;
36351;SDS011;22382;44.768;17.206;2022-07-30T01:21:20;13.45;;;10.93;;
36351;SDS011;22382;44.768;17.206;2022-07-30T01:23:54;13.30;;;11.48;;
36351;SDS011;22382;44.768;17.206;2022-07-30T01:26:25;16.02;;;12.27;;
36351;SDS011;22382;44.768;17.206;2022-07-30T01:28:53;18.40;;;12.55;;
36351;SDS011;22382;44.768;17.206;2022-07-30T01:31:21;18.98;;;13.65;;
36351;SDS011;22382;44.768;17.206;2022-07-30T01:33:50;35.22;;;18.92;;
36351;SDS011;22382;44.768;17.206;2022-07-30T01:36:19;36.05;;;20.10;;
36351;SDS011;22382;44.768;17.206;2022-07-30T01:38:48;35.97;;;20.73;;
36351;SDS011;22382;44.768;17.206;2022-07-30T01:41:16;27.05;;;18.52;;
36351;SDS011;22382;44.768;17.206;2022-07-30T01:43:44;26.70;;;17.17;;
36351;SDS011;22382;44.768;17.206;2022-07-30T01:46:13;23.45;;;16.85;;
36351;SDS011;22382;44.768;17.206;2022-07-30T01:48:41;23.45;;;16.38;;
36351;SDS011;22382;44.768;17.206;2022-07-30T01:51:11;27.95;;;18.40;;
36351;SDS011;22382;44.768;17.206;2022-07-30T01:53:39;24.08;;;16.42;;
36351;SDS011;22382;44.768;17.206;2022-07-30T01:56:08;23.58;;;17.58;;
36351;SDS011;22382;44.768;17.206;2022-07-30T01:58:42;25.38;;;17.67;;
36351;SDS011;22382;44.768;17.206;2022-07-30T02:01:11;23.42;;;18.92;;
36351;SDS011;22382;44.768;17.206;2022-07-30T02:03:39;26.02;;;17.50;;
36351;SDS011;22382;44.768;17.206;2022-07-30T02:06:07;23.48;;;17.23;;
36351;SDS011;22382;44.768;17.206;2022-07-30T02:08:43;22.35;;;17.02;;
36351;SDS011;22382;44.768;17.206;2022-07-30T02:11:16;23.45;;;16.50;;
36351;SDS011;22382;44.768;17.206;2022-07-30T02:14:05;21.00;;;15.40;;
36351;SDS011;22382;44.768;17.206;2022-07-30T02:16:37;19.42;;;15.13;;
36351;SDS011;22382;44.768;17.206;2022-07-30T02:19:08;19.65;;;15.82;;
36351;SDS011;22382;44.768;17.206;2022-07-30T02:21:51;17.23;;;14.82;;
36351;SDS011;22382;44.768;17.206;2022-07-30T02:24:27;19.40;;;15.25;;
36351;SDS011;22382;44.768;17.206;2022-07-30T02:26:59;16.98;;;15.18;;
36351;SDS011;22382;44.768;17.206;2022-07-30T02:29:30;19.67;;;15.25;;
36351;SDS011;22382;44.768;17.206;2022-07-30T02:32:01;21.23;;;16.83;;
36351;SDS011;22382;44.768;17.206;2022-07-30T02:34:35;21.30;;;16.02;;
36351;SDS011;22382;44.768;17.206;2022-07-30T02:37:05;22.48;;;16.30;;
36351;SDS011;22382;44.768;17.206;2022-07-30T02:39:33;19.38;;;15.43;;
36351;SDS011;22382;44.768;17.206;2022-07-30T02:42:02;18.08;;;15.60;;
36351;SDS011;22382;44.768;17.206;2022-07-30T02:44:31;21.38;;;16.25;;
36351;SDS011;22382;44.768;17.206;2022-07-30T02:46:58;21.33;;;16.17;;
36351;SDS011;22382;44.768;17.206;2022-07-30T02:49:30;30.25;;;20.58;;
36351;SDS011;22382;44.768;17.206;2022-07-30T02:52:01;37.38;;;22.30;;
36351;SDS011;22382;44.768;17.206;2022-07-30T02:54:29;25.30;;;18.85;;
36351;SDS011;22382;44.768;17.206;2022-07-30T02:56:57;21.70;;;17.27;;
36351;SDS011;22382;44.768;17.206;2022-07-30T02:59:26;20.08;;;16.98;;
36351;SDS011;22382;44.768;17.206;2022-07-30T03:01:55;21.15;;;16.52;;
36351;SDS011;22382;44.768;17.206;2022-07-30T03:04:24;20.42;;;16.58;;
36351;SDS011;22382;44.768;17.206;2022-07-30T03:06:52;22.40;;;17.80;;
36351;SDS011;22382;44.768;17.206;2022-07-30T03:09:21;24.50;;;18.10;;
36351;SDS011;22382;44.768;17.206;2022-07-30T03:11:48;21.02;;;17.05;;
36351;SDS011;22382;44.768;17.206;2022-07-30T03:14:18;20.90;;;17.27;;
36351;SDS011;22382;44.768;17.206;2022-07-30T03:16:46;21.15;;;17.05;;
36351;SDS011;22382;44.768;17.206;2022-07-30T03:19:19;23.05;;;17.35;;
36351;SDS011;22382;44.768;17.206;2022-07-30T03:21:49;22.13;;;18.42;;
36351;SDS011;22382;44.768;17.206;2022-07-30T03:24:18;24.80;;;17.30;;
36351;SDS011;22382;44.768;17.206;2022-07-30T03:26:47;24.40;;;18.58;;
36351;SDS011;22382;44.768;17.206;2022-07-30T03:29:16;26.52;;;18.73;;
36351;SDS011;22382;44.768;17.206;2022-07-30T03:31:47;24.17;;;18.92;;
36351;SDS011;22382;44.768;17.206;2022-07-30T03:34:15;26.17;;;18.92;;
36351;SDS011;22382;44.768;17.206;2022-07-30T03:36:44;25.67;;;18.52;;
36351;SDS011;22382;44.768;17.206;2022-07-30T03:39:12;25.23;;;19.58;;
36351;SDS011;22382;44.768;17.206;2022-07-30T03:41:40;35.53;;;23.83;;
36351;SDS011;22382;44.768;17.206;2022-07-30T03:44:07;50.33;;;29.70;;
36351;SDS011;22382;44.768;17.206;2022-07-30T03:46:35;44.13;;;27.00;;
36351;SDS011;22382;44.768;17.206;2022-07-30T03:49:03;39.50;;;25.95;;
36351;SDS011;22382;44.768;17.206;2022-07-30T03:51:34;38.55;;;25.42;;
36351;SDS011;22382;44.768;17.206;2022-07-30T03:54:03;37.00;;;25.45;;
36351;SDS011;22382;44.768;17.206;2022-07-30T03:56:39;46.22;;;28.55;;
36351;SDS011;22382;44.768;17.206;2022-07-30T03:59:06;38.15;;;24.80;;
36351;SDS011;22382;44.768;17.206;2022-07-30T04:01:35;36.83;;;24.50;;
36351;SDS011;22382;44.768;17.206;2022-07-30T04:04:03;38.72;;;23.52;;
36351;SDS011;22382;44.768;17.206;2022-07-30T04:06:32;36.95;;;25.08;;
36351;SDS011;22382;44.768;17.206;2022-07-30T04:09:08;31.40;;;20.75;;
36351;SDS011;22382;44.768;17.206;2022-07-30T04:11:37;27.90;;;19.88;;
36351;SDS011;22382;44.768;17.206;2022-07-30T04:14:07;28.27;;;18.50;;
36351;SDS011;22382;44.768;17.206;2022-07-30T04:16:45;16.80;;;14.40;;
36351;SDS011;22382;44.768;17.206;2022-07-30T04:19:18;20.55;;;13.00;;
36351;SDS011;22382;44.768;17.206;2022-07-30T04:24:18;12.52;;;9.70;;
36351;SDS011;22382;44.768;17.206;2022-07-30T04:26:46;10.45;;;8.30;;
36351;SDS011;22382;44.768;17.206;2022-07-30T04:29:14;10.48;;;8.80;;
36351;SDS011;22382;44.768;17.206;2022-07-30T04:31:49;10.30;;;7.15;;
36351;SDS011;22382;44.768;17.206;2022-07-30T04:34:18;8.00;;;6.95;;
36351;SDS011;22382;44.768;17.206;2022-07-30T04:36:46;7.75;;;6.82;;
36351;SDS011;22382;44.768;17.206;2022-07-30T04:39:13;8.93;;;6.43;;
36351;SDS011;22382;44.768;17.206;2022-07-30T04:41:41;10.30;;;6.90;;
36351;SDS011;22382;44.768;17.206;2022-07-30T04:44:15;8.23;;;6.90;;
36351;SDS011;22382;44.768;17.206;2022-07-30T04:46:43;7.80;;;6.40;;
36351;SDS011;22382;44.768;17.206;2022-07-30T04:49:11;9.95;;;6.53;;
36351;SDS011;22382;44.768;17.206;2022-07-30T04:51:41;6.68;;;5.72;;
36351;SDS011;22382;44.768;17.206;2022-07-30T04:54:10;8.60;;;6.15;;
36351;SDS011;22382;44.768;17.206;2022-07-30T04:56:41;6.53;;;5.70;;
36351;SDS011;22382;44.768;17.206;2022-07-30T04:59:19;6.65;;;5.70;;
36351;SDS011;22382;44.768;17.206;2022-07-30T05:01:50;6.90;;;5.70;;
36351;SDS011;22382;44.768;17.206;2022-07-30T05:04:19;8.35;;;5.68;;
36351;SDS011;22382;44.768;17.206;2022-07-30T05:06:47;8.35;;;5.70;;
36351;SDS011;22382;44.768;17.206;2022-07-30T05:09:15;7.43;;;5.38;;
36351;SDS011;22382;44.768;17.206;2022-07-30T05:11:48;5.32;;;4.82;;
36351;SDS011;22382;44.768;17.206;2022-07-30T05:14:19;6.53;;;4.55;;
36351;SDS011;22382;44.768;17.206;2022-07-30T05:16:48;5.28;;;4.60;;
36351;SDS011;22382;44.768;17.206;2022-07-30T05:19:16;4.95;;;4.43;;
36351;SDS011;22382;44.768;17.206;2022-07-30T05:21:44;4.47;;;3.97;;
36351;SDS011;22382;44.768;17.206;2022-07-30T05:24:11;6.05;;;4.32;;
36351;SDS011;22382;44.768;17.206;2022-07-30T05:26:38;5.78;;;4.18;;
36351;SDS011;22382;44.768;17.206;2022-07-30T05:29:05;6.88;;;4.43;;
36351;SDS011;22382;44.768;17.206;2022-07-30T05:31:34;9.65;;;5.93;;
36351;SDS011;22382;44.768;17.206;2022-07-30T05:34:03;8.70;;;5.50;;
36351;SDS011;22382;44.768;17.206;2022-07-30T05:36:30;8.50;;;5.53;;
36351;SDS011;22382;44.768;17.206;2022-07-30T05:38:58;7.68;;;4.93;;
36351;SDS011;22382;44.768;17.206;2022-07-30T05:41:26;5.00;;;4.10;;
36351;SDS011;22382;44.768;17.206;2022-07-30T05:43:58;5.15;;;4.60;;
36351;SDS011;22382;44.768;17.206;2022-07-30T05:46:26;10.18;;;7.05;;
36351;SDS011;22382;44.768;17.206;2022-07-30T05:48:53;8.73;;;5.18;;
36351;SDS011;22382;44.768;17.206;2022-07-30T05:51:20;5.72;;;4.70;;
36351;SDS011;22382;44.768;17.206;2022-07-30T05:53:47;5.55;;;3.70;;
36351;SDS011;22382;44.768;17.206;2022-07-30T05:56:15;7.55;;;5.65;;
36351;SDS011;22382;44.768;17.206;2022-07-30T05:58:42;6.57;;;4.20;;
36351;SDS011;22382;44.768;17.206;2022-07-30T06:01:09;5.55;;;3.35;;
36351;SDS011;22382;44.768;17.206;2022-07-30T06:03:37;4.68;;;3.60;;
36351;SDS011;22382;44.768;17.206;2022-07-30T06:06:04;3.60;;;3.30;;
36351;SDS011;22382;44.768;17.206;2022-07-30T06:08:33;5.57;;;3.95;;
36351;SDS011;22382;44.768;17.206;2022-07-30T06:11:00;7.53;;;5.65;;
36351;SDS011;22382;44.768;17.206;2022-07-30T06:13:28;5.55;;;4.38;;
36351;SDS011;22382;44.768;17.206;2022-07-30T06:15:55;5.18;;;3.88;;
36351;SDS011;22382;44.768;17.206;2022-07-30T06:18:22;5.50;;;3.85;;
36351;SDS011;22382;44.768;17.206;2022-07-30T06:20:49;4.72;;;3.65;;
36351;SDS011;22382;44.768;17.206;2022-07-30T06:23:17;4.10;;;3.63;;
36351;SDS011;22382;44.768;17.206;2022-07-30T06:25:48;5.78;;;3.70;;
36351;SDS011;22382;44.768;17.206;2022-07-30T06:28:16;6.97;;;4.50;;
36351;SDS011;22382;44.768;17.206;2022-07-30T06:31:03;7.00;;;3.78;;
36351;SDS011;22382;44.768;17.206;2022-07-30T06:33:31;6.38;;;4.57;;
36351;SDS011;22382;44.768;17.206;2022-07-30T06:35:58;4.85;;;4.22;;
36351;SDS011;22382;44.768;17.206;2022-07-30T06:38:25;7.03;;;4.28;;
36351;SDS011;22382;44.768;17.206;2022-07-30T06:40:52;6.75;;;4.60;;
36351;SDS011;22382;44.768;17.206;2022-07-30T06:43:24;8.80;;;5.22;;
36351;SDS011;22382;44.768;17.206;2022-07-30T06:45:51;6.20;;;4.13;;
36351;SDS011;22382;44.768;17.206;2022-07-30T06:48:18;5.65;;;4.25;;
36351;SDS011;22382;44.768;17.206;2022-07-30T06:50:45;9.57;;;5.03;;
36351;SDS011;22382;44.768;17.206;2022-07-30T06:53:28;5.10;;;4.47;;
36351;SDS011;22382;44.768;17.206;2022-07-30T06:55:55;5.47;;;4.20;;
36351;SDS011;22382;44.768;17.206;2022-07-30T06:58:26;4.90;;;4.40;;
36351;SDS011;22382;44.768;17.206;2022-07-30T07:00:53;7.80;;;4.50;;
36351;SDS011;22382;44.768;17.206;2022-07-30T07:03:20;6.97;;;4.70;;
36351;SDS011;22382;44.768;17.206;2022-07-30T07:05:47;7.32;;;4.20;;
36351;SDS011;22382;44.768;17.206;2022-07-30T07:08:14;5.03;;;4.18;;
36351;SDS011;22382;44.768;17.206;2022-07-30T07:10:41;4.78;;;4.28;;
36351;SDS011;22382;44.768;17.206;2022-07-30T07:13:08;8.13;;;3.97;;
36351;SDS011;22382;44.768;17.206;2022-07-30T07:15:35;3.97;;;3.53;;
36351;SDS011;22382;44.768;17.206;2022-07-30T07:18:03;5.28;;;3.60;;
36351;SDS011;22382;44.768;17.206;2022-07-30T07:20:32;4.82;;;3.40;;
36351;SDS011;22382;44.768;17.206;2022-07-30T07:22:59;6.13;;;3.67;;
36351;SDS011;22382;44.768;17.206;2022-07-30T07:25:34;5.18;;;3.38;;
36351;SDS011;22382;44.768;17.206;2022-07-30T07:28:01;3.47;;;3.17;;
36351;SDS011;22382;44.768;17.206;2022-07-30T07:30:38;8.32;;;3.67;;
36351;SDS011;22382;44.768;17.206;2022-07-30T07:33:09;4.28;;;3.00;;
36351;SDS011;22382;44.768;17.206;2022-07-30T07:35:38;4.25;;;3.45;;
36351;SDS011;22382;44.768;17.206;2022-07-30T07:38:14;4.70;;;3.55;;
36351;SDS011;22382;44.768;17.206;2022-07-30T07:40:41;6.70;;;3.03;;
36351;SDS011;22382;44.768;17.206;2022-07-30T07:43:08;5.22;;;3.60;;
36351;SDS011;22382;44.768;17.206;2022-07-30T07:45:35;5.38;;;3.63;;
36351;SDS011;22382;44.768;17.206;2022-07-30T07:48:02;12.57;;;5.18;;
36351;SDS011;22382;44.768;17.206;2022-07-30T07:50:30;6.78;;;3.92;;
36351;SDS011;22382;44.768;17.206;2022-07-30T07:52:57;8.23;;;4.07;;
36351;SDS011;22382;44.768;17.206;2022-07-30T07:55:24;5.97;;;4.05;;
36351;SDS011;22382;44.768;17.206;2022-07-30T07:57:51;10.63;;;4.63;;
36351;SDS011;22382;44.768;17.206;2022-07-30T08:00:19;8.25;;;4.57;;
36351;SDS011;22382;44.768;17.206;2022-07-30T08:02:47;8.95;;;4.70;;
36351;SDS011;22382;44.768;17.206;2022-07-30T08:05:15;4.43;;;4.03;;
36351;SDS011;22382;44.768;17.206;2022-07-30T08:07:42;8.57;;;4.95;;
36351;SDS011;22382;44.768;17.206;2022-07-30T08:10:10;7.28;;;3.95;;
36351;SDS011;22382;44.768;17.206;2022-07-30T08:12:40;5.35;;;3.70;;
36351;SDS011;22382;44.768;17.206;2022-07-30T08:15:07;5.55;;;3.72;;
36351;SDS011;22382;44.768;17.206;2022-07-30T08:17:39;7.22;;;4.43;;
36351;SDS011;22382;44.768;17.206;2022-07-30T08:20:07;6.53;;;4.03;;
36351;SDS011;22382;44.768;17.206;2022-07-30T08:22:35;5.85;;;4.47;;
36351;SDS011;22382;44.768;17.206;2022-07-30T08:25:02;8.10;;;4.38;;
36351;SDS011;22382;44.768;17.206;2022-07-30T08:27:30;7.25;;;4.55;;
36351;SDS011;22382;44.768;17.206;2022-07-30T08:30:01;9.05;;;4.95;;
36351;SDS011;22382;44.768;17.206;2022-07-30T08:32:29;5.55;;;4.47;;
36351;SDS011;22382;44.768;17.206;2022-07-30T08:34:56;5.07;;;4.32;;
36351;SDS011;22382;44.768;17.206;2022-07-30T08:37:23;5.32;;;4.28;;
36351;SDS011;22382;44.768;17.206;2022-07-30T08:39:50;8.25;;;5.25;;
36351;SDS011;22382;44.768;17.206;2022-07-30T08:42:17;8.90;;;5.03;;
36351;SDS011;22382;44.768;17.206;2022-07-30T08:44:45;7.18;;;4.88;;
36351;SDS011;22382;44.768;17.206;2022-07-30T08:47:15;6.57;;;4.75;;
36351;SDS011;22382;44.768;17.206;2022-07-30T08:49:46;5.28;;;4.65;;
36351;SDS011;22382;44.768;17.206;2022-07-30T08:52:14;5.80;;;4.43;;
36351;SDS011;22382;44.768;17.206;2022-07-30T08:54:41;7.68;;;5.07;;
36351;SDS011;22382;44.768;17.206;2022-07-30T08:57:10;7.47;;;4.70;;
36351;SDS011;22382;44.768;17.206;2022-07-30T08:59:37;5.55;;;4.78;;
36351;SDS011;22382;44.768;17.206;2022-07-30T09:02:25;7.60;;;5.28;;
36351;SDS011;22382;44.768;17.206;2022-07-30T09:04:54;7.78;;;5.20;;
36351;SDS011;22382;44.768;17.206;2022-07-30T09:07:21;6.40;;;4.47;;
36351;SDS011;22382;44.768;17.206;2022-07-30T09:09:48;10.18;;;5.47;;
36351;SDS011;22382;44.768;17.206;2022-07-30T09:12:49;10.30;;;5.53;;
36351;SDS011;22382;44.768;17.206;2022-07-30T09:17:49;7.40;;;5.03;;
36351;SDS011;22382;44.768;17.206;2022-07-30T09:20:17;7.18;;;5.10;;
36351;SDS011;22382;44.768;17.206;2022-07-30T09:22:46;8.68;;;5.45;;
36351;SDS011;22382;44.768;17.206;2022-07-30T09:28:03;6.45;;;5.20;;
36351;SDS011;22382;44.768;17.206;2022-07-30T09:30:52;6.93;;;6.05;;
36351;SDS011;22382;44.768;17.206;2022-07-30T09:33:30;9.88;;;7.50;;
36351;SDS011;22382;44.768;17.206;2022-07-30T09:35:59;5.85;;;4.80;;
36351;SDS011;22382;44.768;17.206;2022-07-30T09:38:27;8.38;;;5.55;;
36351;SDS011;22382;44.768;17.206;2022-07-30T09:40:55;8.70;;;5.10;;
36351;SDS011;22382;44.768;17.206;2022-07-30T09:43:27;6.53;;;4.95;;
36351;SDS011;22382;44.768;17.206;2022-07-30T09:45:54;6.00;;;5.13;;
36351;SDS011;22382;44.768;17.206;2022-07-30T09:48:27;6.72;;;5.00;;
36351;SDS011;22382;44.768;17.206;2022-07-30T09:50:54;5.82;;;5.10;;
36351;SDS011;22382;44.768;17.206;2022-07-30T09:53:54;5.28;;;4.72;;
36351;SDS011;22382;44.768;17.206;2022-07-30T09:56:26;8.90;;;5.30;;
36351;SDS011;22382;44.768;17.206;2022-07-30T09:58:55;6.63;;;4.65;;
36351;SDS011;22382;44.768;17.206;2022-07-30T10:01:22;6.95;;;5.38;;
36351;SDS011;22382;44.768;17.206;2022-07-30T10:04:09;6.82;;;5.60;;
36351;SDS011;22382;44.768;17.206;2022-07-30T10:06:49;7.93;;;5.07;;
36351;SDS011;22382;44.768;17.206;2022-07-30T10:09:26;6.00;;;5.10;;
36351;SDS011;22382;44.768;17.206;2022-07-30T10:11:55;7.93;;;5.95;;
36351;SDS011;22382;44.768;17.206;2022-07-30T10:14:35;5.20;;;4.70;;
36351;SDS011;22382;44.768;17.206;2022-07-30T10:17:09;6.43;;;4.33;;
36351;SDS011;22382;44.768;17.206;2022-07-30T10:19:38;8.30;;;4.65;;
36351;SDS011;22382;44.768;17.206;2022-07-30T10:22:07;6.20;;;4.68;;
36351;SDS011;22382;44.768;17.206;2022-07-30T10:24:36;5.13;;;4.63;;
36351;SDS011;22382;44.768;17.206;2022-07-30T10:27:04;7.68;;;4.70;;
36351;SDS011;22382;44.768;17.206;2022-07-30T10:29:37;8.00;;;4.50;;
36351;SDS011;22382;44.768;17.206;2022-07-30T10:32:08;8.23;;;4.82;;
36351;SDS011;22382;44.768;17.206;2022-07-30T10:34:35;6.30;;;5.50;;
36351;SDS011;22382;44.768;17.206;2022-07-30T10:37:08;5.55;;;4.32;;
36351;SDS011;22382;44.768;17.206;2022-07-30T10:39:38;7.38;;;5.15;;
36351;SDS011;22382;44.768;17.206;2022-07-30T10:42:23;8.15;;;4.93;;
36351;SDS011;22382;44.768;17.206;2022-07-30T10:45:18;6.43;;;4.32;;
36351;SDS011;22382;44.768;17.206;2022-07-30T10:47:49;5.22;;;4.35;;
36351;SDS011;22382;44.768;17.206;2022-07-30T10:50:19;4.97;;;4.45;;
36351;SDS011;22382;44.768;17.206;2022-07-30T10:58:10;6.00;;;4.63;;
36351;SDS011;22382;44.768;17.206;2022-07-30T11:03:25;4.35;;;3.95;;
36351;SDS011;22382;44.768;17.206;2022-07-30T11:08:43;4.78;;;4.25;;
36351;SDS011;22382;44.768;17.206;2022-07-30T11:14:06;7.03;;;4.60;;
36351;SDS011;22382;44.768;17.206;2022-07-30T11:24:54;5.50;;;4.65;;
36351;SDS011;22382;44.768;17.206;2022-07-30T11:27:43;5.80;;;4.25;;
36351;SDS011;22382;44.768;17.206;2022-07-30T11:32:53;6.18;;;4.35;;
36351;SDS011;22382;44.768;17.206;2022-07-30T11:35:25;5.65;;;4.05;;
36351;SDS011;22382;44.768;17.206;2022-07-30T11:38:07;4.85;;;3.90;;
36351;SDS011;22382;44.768;17.206;2022-07-30T11:40:37;4.68;;;4.10;;
36351;SDS011;22382;44.768;17.206;2022-07-30T11:43:32;4.10;;;3.70;;
36351;SDS011;22382;44.768;17.206;2022-07-30T11:46:06;4.95;;;3.50;;
36351;SDS011;22382;44.768;17.206;2022-07-30T11:48:36;6.47;;;4.28;;
36351;SDS011;22382;44.768;17.206;2022-07-30T11:51:05;4.40;;;4.00;;
36351;SDS011;22382;44.768;17.206;2022-07-30T11:53:32;5.45;;;3.78;;
36351;SDS011;22382;44.768;17.206;2022-07-30T11:56:00;6.13;;;4.38;;
36351;SDS011;22382;44.768;17.206;2022-07-30T12:00:56;5.82;;;3.72;;
36351;SDS011;22382;44.768;17.206;2022-07-30T12:03:27;6.05;;;3.40;;
36351;SDS011;22382;44.768;17.206;2022-07-30T12:06:07;3.92;;;3.53;;
36351;SDS011;22382;44.768;17.206;2022-07-30T12:08:42;5.70;;;4.13;;
36351;SDS011;22382;44.768;17.206;2022-07-30T12:13:38;6.70;;;4.07;;
36351;SDS011;22382;44.768;17.206;2022-07-30T12:16:14;5.47;;;4.40;;
36351;SDS011;22382;44.768;17.206;2022-07-30T12:18:43;6.43;;;4.10;;
36351;SDS011;22382;44.768;17.206;2022-07-30T12:21:11;4.45;;;3.92;;
36351;SDS011;22382;44.768;17.206;2022-07-30T12:23:39;6.10;;;3.70;;
36351;SDS011;22382;44.768;17.206;2022-07-30T12:26:42;5.93;;;4.18;;
36351;SDS011;22382;44.768;17.206;2022-07-30T12:29:02;5.63;;;4.45;;
36351;SDS011;22382;44.768;17.206;2022-07-30T12:31:32;7.03;;;4.28;;
36351;SDS011;22382;44.768;17.206;2022-07-30T12:36:31;6.68;;;4.53;;
36351;SDS011;22382;44.768;17.206;2022-07-30T12:39:01;5.07;;;4.57;;
36351;SDS011;22382;44.768;17.206;2022-07-30T12:41:39;7.22;;;4.70;;
36351;SDS011;22382;44.768;17.206;2022-07-30T12:44:07;6.40;;;4.68;;
36351;SDS011;22382;44.768;17.206;2022-07-30T12:46:39;5.47;;;4.60;;
36351;SDS011;22382;44.768;17.206;2022-07-30T12:49:06;8.45;;;4.32;;
36351;SDS011;22382;44.768;17.206;2022-07-30T12:51:49;6.00;;;4.35;;
36351;SDS011;22382;44.768;17.206;2022-07-30T12:54:24;6.03;;;4.25;;
36351;SDS011;22382;44.768;17.206;2022-07-30T12:56:55;5.93;;;4.60;;
36351;SDS011;22382;44.768;17.206;2022-07-30T12:59:25;6.95;;;4.53;;
36351;SDS011;22382;44.768;17.206;2022-07-30T13:01:53;6.35;;;4.57;;
36351;SDS011;22382;44.768;17.206;2022-07-30T13:04:22;6.90;;;4.55;;
36351;SDS011;22382;44.768;17.206;2022-07-30T13:07:02;5.97;;;5.05;;
36351;SDS011;22382;44.768;17.206;2022-07-30T13:09:34;8.65;;;5.88;;
36351;SDS011;22382;44.768;17.206;2022-07-30T13:12:01;6.25;;;5.22;;
36351;SDS011;22382;44.768;17.206;2022-07-30T13:14:29;7.18;;;6.03;;
36351;SDS011;22382;44.768;17.206;2022-07-30T13:16:56;8.63;;;5.70;;
36351;SDS011;22382;44.768;17.206;2022-07-30T13:19:24;7.10;;;6.00;;
36351;SDS011;22382;44.768;17.206;2022-07-30T13:21:53;7.18;;;5.53;;
36351;SDS011;22382;44.768;17.206;2022-07-30T13:24:20;5.88;;;5.30;;
36351;SDS011;22382;44.768;17.206;2022-07-30T13:26:47;5.93;;;5.32;;
36351;SDS011;22382;44.768;17.206;2022-07-30T13:29:16;5.95;;;5.35;;
36351;SDS011;22382;44.768;17.206;2022-07-30T13:31:43;7.47;;;5.57;;
36351;SDS011;22382;44.768;17.206;2022-07-30T13:34:10;7.25;;;5.20;;
36351;SDS011;22382;44.768;17.206;2022-07-30T13:36:38;6.63;;;5.30;;
36351;SDS011;22382;44.768;17.206;2022-07-30T13:39:05;6.25;;;5.65;;
36351;SDS011;22382;44.768;17.206;2022-07-30T13:41:32;7.53;;;5.22;;
36351;SDS011;22382;44.768;17.206;2022-07-30T13:44:01;8.35;;;5.45;;
36351;SDS011;22382;44.768;17.206;2022-07-30T13:46:29;6.95;;;5.68;;
36351;SDS011;22382;44.768;17.206;2022-07-30T13:48:56;7.40;;;5.80;;
36351;SDS011;22382;44.768;17.206;2022-07-30T13:51:23;6.18;;;5.57;;
36351;SDS011;22382;44.768;17.206;2022-07-30T13:53:50;5.55;;;4.90;;
36351;SDS011;22382;44.768;17.206;2022-07-30T13:56:17;5.28;;;4.72;;
36351;SDS011;22382;44.768;17.206;2022-07-30T13:58:45;6.78;;;4.90;;
36351;SDS011;22382;44.768;17.206;2022-07-30T14:01:13;6.63;;;5.50;;
36351;SDS011;22382;44.768;17.206;2022-07-30T14:03:43;5.80;;;5.13;;
36351;SDS011;22382;44.768;17.206;2022-07-30T14:06:16;6.47;;;5.20;;
36351;SDS011;22382;44.768;17.206;2022-07-30T14:08:44;6.03;;;5.43;;
36351;SDS011;22382;44.768;17.206;2022-07-30T14:11:12;5.75;;;5.20;;
36351;SDS011;22382;44.768;17.206;2022-07-30T14:13:39;5.75;;;5.03;;
36351;SDS011;22382;44.768;17.206;2022-07-30T14:16:06;6.40;;;5.43;;
36351;SDS011;22382;44.768;17.206;2022-07-30T14:18:53;6.15;;;5.30;;
36351;SDS011;22382;44.768;17.206;2022-07-30T14:21:22;6.80;;;5.40;;
36351;SDS011;22382;44.768;17.206;2022-07-30T14:23:50;8.20;;;5.50;;
36351;SDS011;22382;44.768;17.206;2022-07-30T14:26:17;7.50;;;5.47;;
36351;SDS011;22382;44.768;17.206;2022-07-30T14:28:44;6.95;;;5.50;;
36351;SDS011;22382;44.768;17.206;2022-07-30T14:31:11;6.35;;;5.70;;
36351;SDS011;22382;44.768;17.206;2022-07-30T14:33:38;6.70;;;5.55;;
36351;SDS011;22382;44.768;17.206;2022-07-30T14:36:05;9.07;;;6.55;;
36351;SDS011;22382;44.768;17.206;2022-07-30T14:38:32;5.53;;;4.68;;
36351;SDS011;22382;44.768;17.206;2022-07-30T14:40:59;5.65;;;4.28;;
36351;SDS011;22382;44.768;17.206;2022-07-30T14:43:26;6.60;;;4.15;;
36351;SDS011;22382;44.768;17.206;2022-07-30T14:45:53;5.07;;;4.07;;
36351;SDS011;22382;44.768;17.206;2022-07-30T14:48:20;5.07;;;4.32;;
36351;SDS011;22382;44.768;17.206;2022-07-30T14:50:47;6.18;;;4.40;;
36351;SDS011;22382;44.768;17.206;2022-07-30T14:53:34;6.38;;;4.30;;
36351;SDS011;22382;44.768;17.206;2022-07-30T14:56:02;4.47;;;3.90;;
36351;SDS011;22382;44.768;17.206;2022-07-30T14:58:29;5.13;;;3.83;;
36351;SDS011;22382;44.768;17.206;2022-07-30T15:00:56;6.15;;;3.60;;
36351;SDS011;22382;44.768;17.206;2022-07-30T15:03:23;6.50;;;3.58;;
36351;SDS011;22382;44.768;17.206;2022-07-30T15:05:51;3.95;;;3.55;;
36351;SDS011;22382;44.768;17.206;2022-07-30T15:08:18;4.40;;;3.40;;
36351;SDS011;22382;44.768;17.206;2022-07-30T15:10:45;6.90;;;3.63;;
36351;SDS011;22382;44.768;17.206;2022-07-30T15:13:13;4.80;;;3.30;;
36351;SDS011;22382;44.768;17.206;2022-07-30T15:15:41;4.07;;;3.35;;
36351;SDS011;22382;44.768;17.206;2022-07-30T15:18:11;7.22;;;4.10;;
36351;SDS011;22382;44.768;17.206;2022-07-30T15:20:38;5.60;;;3.60;;
36351;SDS011;22382;44.768;17.206;2022-07-30T15:23:05;5.65;;;3.85;;